createdAt,value
2019-04-21T00:02:32.422Z,25.42
2019-04-21T00:05:18.834Z,25.41
2019-04-21T00:07:49.425Z,25.39
2019-04-21T00:10:18.714Z,25.40
2019-04-21T00:12:41.866Z,25.39
2019-04-21T00:15:06.352Z,25.38
2019-04-21T00:17:27.079Z,25.40
2019-04-21T00:20:09.084Z,25.38
2019-04-21T00:22:41.337Z,25.38
2019-04-21T00:25:14.061Z,25.35
2019-04-21T00:27:46.503Z,25.34
2019-04-21T00:30:15.772Z,25.38
2019-04-21T00:32:39.303Z,25.36
2019-04-21T00:35:05.628Z,25.35
2019-04-21T00:37:49.402Z,25.34
2019-04-21T00:40:19.305Z,25.34
2019-04-21T00:42:43.551Z,25.36
2019-04-21T00:45:13.128Z,25.31
2019-04-21T00:47:46.271Z,25.31
2019-04-21T00:50:20.585Z,25.33
2019-04-21T00:55:48.819Z,25.35
2019-04-21T00:58:26.924Z,25.33
2019-04-21T01:00:51.117Z,25.28
2019-04-21T01:03:23.569Z,25.29
2019-04-21T01:05:58.958Z,25.28
2019-04-21T01:08:21.498Z,25.26
2019-04-21T01:10:45.204Z,25.29
2019-04-21T01:13:23.593Z,25.31
2019-04-21T01:15:52.834Z,25.28
2019-04-21T01:18:20.706Z,25.26
2019-04-21T01:20:28.702Z,25.27
2019-04-21T01:22:57.812Z,25.23
2019-04-21T01:25:33.059Z,25.22
2019-04-21T01:28:13.618Z,25.21
2019-04-21T01:30:50.316Z,25.23
2019-04-21T01:33:21.710Z,25.22
2019-04-21T01:35:44.066Z,25.20
2019-04-21T01:38:24.174Z,25.19
2019-04-21T01:40:44.721Z,25.15
2019-04-21T01:43:15.036Z,25.15
2019-04-21T01:45:43.448Z,25.18
2019-04-21T01:48:12.858Z,25.19
2019-04-21T01:50:41.136Z,25.17
2019-04-21T01:53:24.368Z,25.14
2019-04-21T01:56:14.577Z,25.17
2019-04-21T01:58:37.988Z,25.15
2019-04-21T02:01:10.106Z,25.11
2019-04-21T02:03:53.212Z,25.19
2019-04-21T02:06:18.024Z,25.11
2019-04-21T02:08:41.481Z,25.08
2019-04-21T02:11:17.657Z,25.12
2019-04-21T02:13:53.724Z,25.10
2019-04-21T02:16:21.522Z,25.12
2019-04-21T02:18:45.087Z,25.07
2019-04-21T02:21:04.065Z,25.08
2019-04-21T02:23:55.835Z,25.09
2019-04-21T02:26:16.066Z,25.06
2019-04-21T02:28:51.211Z,25.05
2019-04-21T02:31:28.655Z,25.04
2019-04-21T02:34:04.536Z,25.04
2019-04-21T02:39:08.406Z,25.03
2019-04-21T02:41:21.460Z,25.05
2019-04-21T02:44:02.193Z,25.04
2019-04-21T02:46:31.289Z,25.01
2019-04-21T02:51:31.481Z,25.02
2019-04-21T02:56:27.853Z,25.03
2019-04-21T03:01:56.839Z,25.01
2019-04-21T03:04:42.592Z,25.01
2019-04-21T03:07:19.231Z,24.96
2019-04-21T03:09:49.456Z,25.00
2019-04-21T03:15:06.251Z,24.99
2019-04-21T03:17:43.894Z,24.93
2019-04-21T03:20:08.759Z,24.98
2019-04-21T03:25:22.826Z,24.95
2019-04-21T03:29:59.247Z,24.92
2019-04-21T03:35:34.025Z,24.96
2019-04-21T03:40:08.059Z,24.95
2019-04-21T03:49:54.553Z,24.92
2019-04-21T03:55:37.683Z,24.87
2019-04-21T03:57:58.067Z,24.86
2019-04-21T04:00:27.624Z,24.89
2019-04-21T04:03:23.555Z,24.88
2019-04-21T04:06:15.494Z,24.90
2019-04-21T04:08:52.543Z,24.88
2019-04-21T04:11:36.024Z,24.88
2019-04-21T04:13:47.318Z,24.85
2019-04-21T04:16:12.001Z,24.89
2019-04-21T04:18:53.281Z,24.87
2019-04-21T04:21:16.889Z,24.87
2019-04-21T04:23:53.446Z,24.86
2019-04-21T04:26:11.450Z,24.84
2019-04-21T04:33:52.863Z,24.85
2019-04-21T04:36:15.655Z,24.82
2019-04-21T04:38:39.583Z,24.86
2019-04-21T04:41:28.868Z,24.82
2019-04-21T04:43:54.492Z,24.82
2019-04-21T04:46:18.197Z,24.85
2019-04-21T04:48:53.230Z,24.88
2019-04-21T04:51:25.104Z,24.88
2019-04-21T04:53:53.074Z,24.85
2019-04-21T04:56:20.746Z,24.85
2019-04-21T05:01:23.010Z,24.81
2019-04-21T05:09:03.871Z,24.84
2019-04-21T05:11:46.664Z,24.79
2019-04-21T05:13:58.053Z,24.81
2019-04-21T05:16:38.464Z,24.84
2019-04-21T05:19:04.136Z,24.83
2019-04-21T05:21:30.394Z,24.82
2019-04-21T05:23:43.050Z,24.83
2019-04-21T05:26:06.847Z,24.85
2019-04-21T05:28:38.524Z,24.86
2019-04-21T05:31:34.493Z,24.83
2019-04-21T05:34:09.512Z,24.88
2019-04-21T05:36:54.000Z,24.91
2019-04-21T05:39:36.009Z,24.93
2019-04-21T05:41:59.210Z,24.91
2019-04-21T05:44:54.583Z,24.96
2019-04-21T05:47:23.616Z,24.96
2019-04-21T05:50:02.962Z,24.96
2019-04-21T05:52:27.544Z,25.00
2019-04-21T05:55:06.382Z,25.02
2019-04-21T05:57:29.097Z,25.01
2019-04-21T05:59:59.410Z,25.05
2019-04-21T06:02:35.222Z,25.05
2019-04-21T06:05:18.537Z,25.06
2019-04-21T06:10:02.826Z,25.17
2019-04-21T06:12:35.929Z,25.18
2019-04-21T06:15:01.716Z,25.22
2019-04-21T06:17:34.866Z,25.23
2019-04-21T06:20:02.965Z,25.24
2019-04-21T06:22:33.176Z,25.29
2019-04-21T06:25:37.474Z,25.32
2019-04-21T06:27:34.347Z,25.31
2019-04-21T06:29:59.958Z,25.29
2019-04-21T06:37:55.011Z,25.39
2019-04-21T06:42:43.208Z,25.38
2019-04-21T06:45:14.270Z,25.44
2019-04-21T06:50:11.477Z,25.46
2019-04-21T06:55:12.127Z,25.44
2019-04-21T06:57:38.969Z,25.49
2019-04-21T07:00:10.112Z,25.53
2019-04-21T07:05:09.051Z,25.57
2019-04-21T07:07:40.568Z,25.51
2019-04-21T07:12:35.466Z,25.59
2019-04-21T07:15:04.065Z,25.60
2019-04-21T07:17:35.174Z,25.60
2019-04-21T07:20:14.036Z,25.61
2019-04-21T07:22:40.164Z,25.57
2019-04-21T07:25:12.360Z,25.60
2019-04-21T07:27:39.711Z,25.63
2019-04-21T07:30:05.014Z,25.64
2019-04-21T07:32:33.746Z,25.67
2019-04-21T07:37:35.083Z,25.67
2019-04-21T07:40:03.693Z,25.68
2019-04-21T07:42:29.797Z,25.68
2019-04-21T07:45:00.695Z,25.71
2019-04-21T07:47:43.267Z,25.71
2019-04-21T07:50:14.871Z,25.68
2019-04-21T07:53:05.059Z,25.67
2019-04-21T07:57:49.709Z,25.73
2019-04-21T08:00:45.072Z,25.74
2019-04-21T08:02:57.208Z,25.71
2019-04-21T08:05:37.744Z,25.74
2019-04-21T08:07:59.492Z,25.74
2019-04-21T08:10:22.966Z,25.73
2019-04-21T08:12:48.158Z,25.76
2019-04-21T08:18:07.494Z,25.82
2019-04-21T08:20:19.891Z,25.83
2019-04-21T08:22:51.568Z,25.83
2019-04-21T08:25:19.505Z,25.87
2019-04-21T08:27:54.557Z,25.87
2019-04-21T08:30:26.208Z,25.86
2019-04-21T08:35:48.770Z,25.89
2019-04-21T08:37:50.874Z,25.88
2019-04-21T08:40:26.658Z,25.87
2019-04-21T08:42:52.383Z,25.92
2019-04-21T08:45:22.569Z,25.90
2019-04-21T08:47:52.547Z,25.92
2019-04-21T08:50:21.179Z,25.94
2019-04-21T08:55:36.245Z,25.94
2019-04-21T08:58:27.323Z,25.99
2019-04-21T09:01:06.692Z,25.96
2019-04-21T09:03:43.398Z,25.95
2019-04-21T09:06:27.940Z,26.01
2019-04-21T09:08:46.024Z,25.97
2019-04-21T09:11:13.882Z,26.00
2019-04-21T09:13:41.104Z,26.05
2019-04-21T09:16:09.874Z,26.04
2019-04-21T09:18:41.957Z,26.05
2019-04-21T09:21:23.716Z,26.10
2019-04-21T09:23:45.555Z,26.07
2019-04-21T09:26:14.633Z,26.09
2019-04-21T09:28:39.457Z,26.11
2019-04-21T09:31:00.678Z,26.09
2019-04-21T09:33:33.428Z,26.12
2019-04-21T09:35:59.653Z,26.13
2019-04-21T09:38:33.862Z,26.15
2019-04-21T09:40:55.900Z,26.17
2019-04-21T09:43:35.755Z,26.16
2019-04-21T09:45:54.212Z,26.13
2019-04-21T09:48:24.290Z,26.18
2019-04-21T09:50:52.487Z,26.21
2019-04-21T09:53:28.528Z,26.18
2019-04-21T09:55:56.732Z,26.20
2019-04-21T09:58:29.351Z,26.18
2019-04-21T10:01:01.414Z,26.17
2019-04-21T10:03:21.207Z,26.19
2019-04-21T10:05:49.813Z,26.19
2019-04-21T10:08:18.831Z,26.19
2019-04-21T10:10:47.030Z,26.15
2019-04-21T10:13:15.177Z,26.20
2019-04-21T10:15:45.974Z,26.20
2019-04-21T10:18:17.743Z,26.23
2019-04-21T10:20:46.916Z,26.22
2019-04-21T10:23:15.650Z,26.20
2019-04-21T10:25:44.099Z,25.25
2019-04-21T10:28:12.871Z,26.26
2019-04-21T10:30:41.064Z,26.25
2019-04-21T10:33:10.386Z,26.29
2019-04-21T10:35:39.392Z,26.33
2019-04-21T10:38:19.797Z,26.26
2019-04-21T10:40:37.476Z,26.27
2019-04-21T10:43:06.713Z,26.28
2019-04-21T10:45:36.878Z,26.31
2019-04-21T10:48:05.238Z,26.31
2019-04-21T10:50:33.341Z,26.33
2019-04-21T10:53:14.580Z,26.34
2019-04-21T10:55:57.991Z,26.33
2019-04-21T10:58:16.169Z,26.35
2019-04-21T11:00:46.040Z,26.33
2019-04-21T11:03:29.074Z,26.39
2019-04-21T11:05:58.804Z,26.44
2019-04-21T11:08:32.577Z,26.40
2019-04-21T11:10:58.143Z,26.40
2019-04-21T11:13:26.453Z,26.44
2019-04-21T11:15:55.202Z,26.47
2019-04-21T11:18:24.061Z,26.49
2019-04-21T11:20:53.155Z,26.48
2019-04-21T11:23:22.454Z,26.46
2019-04-21T11:25:51.683Z,26.51
2019-04-21T11:28:20.695Z,26.50
2019-04-21T11:30:48.932Z,26.48
2019-04-21T11:33:17.397Z,26.50
2019-04-21T11:35:45.623Z,26.48
2019-04-21T11:38:21.871Z,26.51
2019-04-21T11:40:47.626Z,26.51
2019-04-21T11:43:15.856Z,26.52
2019-04-21T11:45:44.364Z,26.52
2019-04-21T11:48:20.294Z,26.50
2019-04-21T11:50:48.845Z,26.54
2019-04-21T11:53:17.078Z,26.55
2019-04-21T11:55:48.237Z,26.54
2019-04-21T11:58:15.990Z,26.55
2019-04-21T12:00:45.434Z,26.56
2019-04-21T12:03:15.346Z,26.57
2019-04-21T12:05:43.559Z,26.58
2019-04-21T12:08:23.023Z,26.54
2019-04-21T12:10:41.907Z,26.57
2019-04-21T12:13:10.181Z,26.60
2019-04-21T12:15:38.941Z,26.61
2019-04-21T12:18:07.999Z,26.61
2019-04-21T12:20:37.638Z,26.63
2019-04-21T12:23:06.746Z,26.63
2019-04-21T12:25:38.937Z,26.66
2019-04-21T12:28:07.902Z,26.65
2019-04-21T12:30:37.665Z,26.66
2019-04-21T12:33:09.836Z,26.66
2019-04-21T12:35:39.486Z,26.63
2019-04-21T12:38:10.954Z,26.63
2019-04-21T12:40:38.872Z,26.65
2019-04-21T12:43:08.195Z,26.69
2019-04-21T12:45:37.856Z,26.69
2019-04-21T12:48:06.172Z,26.68
2019-04-21T12:50:34.387Z,26.68
2019-04-21T12:53:03.312Z,26.69
2019-04-21T12:55:36.633Z,26.71
2019-04-21T12:58:01.490Z,26.72
2019-04-21T13:00:31.142Z,26.73
2019-04-21T13:02:59.437Z,26.69
2019-04-21T13:05:27.713Z,26.73
2019-04-21T13:07:56.208Z,26.72
2019-04-21T13:10:26.417Z,26.72
2019-04-21T13:12:54.701Z,26.78
2019-04-21T13:15:22.853Z,26.76
2019-04-21T13:17:52.134Z,26.77
2019-04-21T13:20:21.138Z,26.76
2019-04-21T13:22:50.290Z,26.75
2019-04-21T13:25:18.500Z,26.79
2019-04-21T13:27:47.225Z,26.74
2019-04-21T13:30:15.500Z,26.71
2019-04-21T13:32:45.104Z,26.68
2019-04-21T13:35:14.957Z,26.75
2019-04-21T13:37:43.667Z,26.71
2019-04-21T13:40:50.020Z,26.78
2019-04-21T13:43:02.873Z,26.72
2019-04-21T13:45:30.074Z,26.75
2019-04-21T13:47:58.745Z,26.77
2019-04-21T13:50:26.900Z,26.80
2019-04-21T13:52:56.441Z,26.80
2019-04-21T13:55:25.485Z,26.79
2019-04-21T13:57:54.537Z,26.78
2019-04-21T14:00:23.991Z,26.82
2019-04-21T14:02:52.560Z,26.78
2019-04-21T14:05:20.741Z,26.82
2019-04-21T14:07:50.296Z,26.85
2019-04-21T14:10:19.823Z,26.83
2019-04-21T14:12:48.897Z,26.79
2019-04-21T14:15:18.079Z,26.84
2019-04-21T14:17:46.752Z,26.80
2019-04-21T14:20:15.304Z,26.81
2019-04-21T14:22:44.257Z,26.81
2019-04-21T14:25:15.137Z,26.86
2019-04-21T14:27:42.345Z,26.83
2019-04-21T14:30:10.526Z,26.87
2019-04-21T14:32:38.609Z,26.81
2019-04-21T14:35:06.982Z,26.81
2019-04-21T14:37:35.108Z,26.81
2019-04-21T14:40:07.427Z,26.80
2019-04-21T14:42:34.013Z,26.80
2019-04-21T14:45:03.181Z,26.79
2019-04-21T14:47:44.286Z,26.80
2019-04-21T14:50:34.404Z,26.80
2019-04-21T14:53:27.789Z,26.78
2019-04-21T14:55:57.385Z,26.81
2019-04-21T14:58:25.645Z,26.81
2019-04-21T15:01:01.857Z,26.81
2019-04-21T15:03:30.267Z,26.80
2019-04-21T15:05:58.405Z,26.80
2019-04-21T15:08:27.079Z,26.77
2019-04-21T15:10:55.265Z,26.78
2019-04-21T15:13:23.698Z,26.85
2019-04-21T15:15:52.207Z,26.85
2019-04-21T15:18:21.044Z,26.82
2019-04-21T15:20:50.557Z,26.85
2019-04-21T15:23:20.058Z,26.83
2019-04-21T15:25:50.157Z,26.85
2019-04-21T15:28:18.416Z,26.84
2019-04-21T15:30:47.066Z,26.87
2019-04-21T15:33:16.267Z,26.87
2019-04-21T15:35:44.973Z,26.88
2019-04-21T15:38:14.015Z,26.90
2019-04-21T15:40:50.517Z,26.89
2019-04-21T15:43:12.571Z,26.95
2019-04-21T15:45:40.744Z,26.96
2019-04-21T15:48:09.878Z,27.00
2019-04-21T15:50:38.147Z,27.10
2019-04-21T15:53:07.767Z,27.12
2019-04-21T15:55:54.796Z,27.22
2019-04-21T15:58:40.911Z,27.44
2019-04-21T16:01:32.364Z,27.79
2019-04-21T16:04:02.443Z,28.37
2019-04-21T16:06:31.799Z,29.96
2019-04-21T16:09:01.372Z,30.79
2019-04-21T16:11:31.486Z,31.30
2019-04-21T16:13:59.818Z,31.67
2019-04-21T16:16:30.143Z,31.93
2019-04-21T16:18:58.313Z,31.89
2019-04-21T16:21:26.572Z,31.81
2019-04-21T16:23:56.253Z,31.23
2019-04-21T16:26:24.688Z,30.58
2019-04-21T16:28:53.199Z,29.10
2019-04-21T16:31:22.517Z,27.97
2019-04-21T16:33:51.302Z,27.55
2019-04-21T16:36:20.062Z,27.40
2019-04-21T16:38:49.294Z,27.36
2019-04-21T16:41:18.257Z,27.35
2019-04-21T16:43:47.121Z,27.30
2019-04-21T16:46:15.811Z,27.29
2019-04-21T16:48:44.204Z,27.23
2019-04-21T16:51:13.274Z,27.25
2019-04-21T16:53:46.288Z,27.18
2019-04-21T16:56:22.850Z,27.18
2019-04-21T16:59:06.393Z,27.13
2019-04-21T17:01:34.691Z,27.13
2019-04-21T17:04:04.445Z,27.11
2019-04-21T17:06:33.241Z,27.13
2019-04-21T17:09:02.894Z,27.09
2019-04-21T17:11:35.136Z,27.09
2019-04-21T17:14:01.225Z,27.05
2019-04-21T17:16:57.578Z,27.05
2019-04-21T17:19:08.843Z,27.03
2019-04-21T17:21:30.097Z,27.00
2019-04-21T17:23:58.897Z,26.92
2019-04-21T17:26:27.184Z,26.97
2019-04-21T17:28:56.481Z,26.94
2019-04-21T17:31:24.789Z,26.89
2019-04-21T17:34:02.108Z,26.90
2019-04-21T17:36:23.173Z,26.91
2019-04-21T17:38:52.274Z,26.82
2019-04-21T17:41:30.414Z,26.83
2019-04-21T17:43:50.389Z,26.81
2019-04-21T17:46:22.986Z,26.79
2019-04-21T17:48:49.303Z,26.80
2019-04-21T17:51:35.393Z,26.75
2019-04-21T17:54:23.594Z,26.72
2019-04-21T17:57:11.414Z,26.75
2019-04-21T17:59:45.068Z,26.71
2019-04-21T18:02:05.083Z,26.70
2019-04-21T18:04:34.836Z,26.68
2019-04-21T18:07:17.337Z,26.67
2019-04-21T18:09:58.014Z,26.64
2019-04-21T18:12:16.657Z,26.66
2019-04-21T18:14:30.604Z,26.61
2019-04-21T18:17:00.269Z,26.65
2019-04-21T18:19:34.258Z,26.63
2019-04-21T18:22:31.382Z,26.62
2019-04-21T18:25:02.970Z,26.62
2019-04-21T18:27:26.689Z,26.60
2019-04-21T18:29:55.366Z,26.61
2019-04-21T18:32:26.367Z,26.60
2019-04-21T18:35:29.238Z,26.56
2019-04-21T18:38:16.869Z,26.54
2019-04-21T18:40:45.567Z,26.51
2019-04-21T18:43:50.231Z,26.50
2019-04-21T18:46:20.557Z,26.50
2019-04-21T18:48:55.944Z,26.49
2019-04-21T18:51:57.165Z,26.44
2019-04-21T18:54:37.214Z,26.49
2019-04-21T18:57:03.249Z,26.47
2019-04-21T18:59:31.398Z,26.48
2019-04-21T19:01:58.405Z,26.46
2019-04-21T19:04:25.588Z,26.45
2019-04-21T19:07:06.715Z,26.41
2019-04-21T19:10:00.761Z,26.45
2019-04-21T19:12:12.648Z,26.45
2019-04-21T19:14:50.982Z,26.46
2019-04-21T19:17:33.547Z,26.45
2019-04-21T19:19:50.441Z,26.46
2019-04-21T19:22:21.697Z,26.45
2019-04-21T19:24:41.215Z,26.44
2019-04-21T19:27:22.567Z,26.42
2019-04-21T19:29:57.225Z,26.42
2019-04-21T19:32:08.843Z,26.43
2019-04-21T19:34:25.811Z,26.41
2019-04-21T19:36:57.600Z,26.42
2019-04-21T19:39:37.509Z,26.44
2019-04-21T19:42:01.956Z,26.43
2019-04-21T19:44:38.162Z,26.41
2019-04-21T19:47:03.859Z,26.43
2019-04-21T19:49:44.194Z,26.39
2019-04-21T19:51:56.210Z,26.41
2019-04-21T19:54:25.250Z,26.35
2019-04-21T19:56:49.025Z,26.34
2019-04-21T19:59:23.837Z,26.32
2019-04-21T20:01:50.852Z,26.35
2019-04-21T20:04:16.911Z,26.31
2019-04-21T20:06:57.319Z,26.35
2019-04-21T20:09:32.400Z,26.35
2019-04-21T20:11:59.108Z,26.33
2019-04-21T20:17:01.944Z,26.32
2019-04-21T20:19:16.212Z,26.28
2019-04-21T20:21:45.085Z,26.28
2019-04-21T20:24:17.651Z,26.27
2019-04-21T20:26:51.058Z,26.30
2019-04-21T20:29:29.969Z,26.31
2019-04-21T20:31:54.189Z,26.30
2019-04-21T20:34:33.906Z,26.28
2019-04-21T20:37:02.043Z,26.29
2019-04-21T20:39:17.770Z,26.26
2019-04-21T20:41:55.327Z,26.28
2019-04-21T20:44:29.849Z,26.25
2019-04-21T20:46:58.137Z,26.25
2019-04-21T20:49:23.150Z,26.26
2019-04-21T20:52:08.425Z,26.26
2019-04-21T20:54:28.591Z,26.22
2019-04-21T20:57:02.695Z,26.19
2019-04-21T20:59:24.797Z,26.21
2019-04-21T21:01:57.955Z,26.23
2019-04-21T21:04:22.913Z,26.21
2019-04-21T21:07:01.846Z,26.20
2019-04-21T21:09:25.346Z,26.22
2019-04-21T21:12:13.045Z,26.24
2019-04-21T21:14:28.087Z,26.20
2019-04-21T21:17:01.240Z,26.22
2019-04-21T21:19:28.577Z,26.19
2019-04-21T21:21:53.994Z,26.18
2019-04-21T21:24:31.076Z,26.20
2019-04-21T21:27:01.930Z,26.15
2019-04-21T21:29:29.218Z,26.18
2019-04-21T21:32:04.343Z,26.18
2019-04-21T21:34:29.422Z,26.18
2019-04-21T21:36:54.033Z,26.10
2019-04-21T21:39:21.351Z,26.11
2019-04-21T21:42:01.865Z,26.08
2019-04-21T21:44:29.801Z,26.09
2019-04-21T21:47:08.711Z,26.08
2019-04-21T21:49:36.880Z,26.03
2019-04-21T21:52:07.046Z,26.08
2019-04-21T21:54:45.589Z,26.06
2019-04-21T21:57:14.608Z,26.07
2019-04-21T21:59:45.306Z,26.10
2019-04-21T22:05:13.259Z,26.05
2019-04-21T22:07:38.823Z,26.04
2019-04-21T22:10:08.483Z,26.03
2019-04-21T22:12:45.776Z,26.01
2019-04-21T22:15:12.527Z,26.00
2019-04-21T22:17:54.327Z,26.00
2019-04-21T22:20:28.158Z,25.99
2019-04-21T22:22:45.034Z,25.98
2019-04-21T22:25:12.632Z,25.98
2019-04-21T22:27:37.033Z,25.95
2019-04-21T22:30:10.553Z,25.98
2019-04-21T22:32:36.877Z,25.96
2019-04-21T22:40:44.075Z,25.96
2019-04-21T22:45:43.584Z,25.93
2019-04-21T22:48:17.493Z,25.94
2019-04-21T22:50:42.464Z,25.91
2019-04-21T22:53:13.725Z,25.93
2019-04-21T22:55:41.112Z,25.92
2019-04-21T22:58:09.671Z,25.90
2019-04-21T23:00:44.446Z,25.86
2019-04-21T23:03:13.557Z,25.89
2019-04-21T23:05:42.726Z,25.90
2019-04-21T23:08:09.257Z,25.90
2019-04-21T23:10:41.472Z,25.84
2019-04-21T23:13:13.171Z,25.85
2019-04-21T23:15:45.525Z,25.86
2019-04-21T23:18:23.300Z,25.81
2019-04-21T23:21:10.450Z,25.85
2019-04-21T23:23:48.330Z,25.87
2019-04-21T23:29:01.862Z,25.83
2019-04-21T23:31:34.119Z,25.81
2019-04-21T23:33:44.102Z,25.80
2019-04-21T23:39:01.267Z,25.73
2019-04-21T23:41:39.040Z,25.77
2019-04-21T23:44:05.533Z,25.78
2019-04-21T23:46:34.415Z,25.72
2019-04-21T23:49:15.164Z,25.73
2019-04-21T23:51:39.591Z,25.73
2019-04-21T23:53:59.534Z,25.72
2019-04-21T23:56:35.480Z,25.72
2019-04-21T23:59:03.180Z,25.72
